Time;durP1;ratioP1;P1;durP2;ratioP2;P2;SDS_P1;SDS_P2;PMS_P1;PMS_P2;Temp;Humidity;BMP_temperature;BMP_pressure;BME280_temperature;BME280_humidity;BME280_pressure;Samples;Min_cycle;Max_cycle;Signal;HPM_P1;HPM_P2
2023/04/01 00:02:19;;;;;;;6.38;3.72;;;;;;;7.48;59.15;99324.84;5008676;28;20035;-66
2023/04/01 00:04:44;;;;;;;7.88;3.42;;;;;;;7.48;58.78;99322.25;5009719;28;20053;-66
2023/04/01 00:07:10;;;;;;;8.07;4.57;;;;;;;7.54;58.47;99314.13;5014946;28;20063;-66
2023/04/01 00:09:36;;;;;;;7.45;4.40;;;;;;;7.35;59.10;99323.78;4992882;28;20061;-67
2023/04/01 00:12:01;;;;;;;4.93;4.00;;;;;;;7.36;59.06;99323.72;5017110;28;20029;-70
2023/04/01 00:14:27;;;;;;;8.38;4.90;;;;;;;7.44;58.91;99320.72;5005383;28;20040;-68
2023/04/01 00:16:52;;;;;;;9.18;4.60;;;;;;;7.49;58.46;99321.34;5013499;28;20101;-69
2023/04/01 00:19:18;;;;;;;10.40;5.43;;;;;;;7.47;58.92;99321.41;5011031;28;20171;-70
2023/04/01 00:21:44;;;;;;;9.85;5.15;;;;;;;7.41;59.17;99326.09;5016073;28;20033;-66
2023/04/01 00:24:09;;;;;;;8.63;4.32;;;;;;;7.50;59.19;99328.22;4994570;28;20132;-64
2023/04/01 00:26:35;;;;;;;10.38;5.60;;;;;;;7.43;59.23;99329.44;5010461;28;20662;-68
2023/04/01 00:29:01;;;;;;;10.45;5.78;;;;;;;7.46;59.39;99326.69;5011123;28;20508;-65
2023/04/01 00:31:26;;;;;;;7.43;5.35;;;;;;;7.54;59.10;99324.53;5010166;28;20037;-67
2023/04/01 00:33:52;;;;;;;6.57;4.78;;;;;;;7.30;59.55;99327.47;5009637;28;21659;-68
2023/04/01 00:36:21;;;;;;;8.82;5.47;;;;;;;7.59;59.09;99327.75;5014648;28;20638;-68
2023/04/01 00:38:47;;;;;;;9.43;6.30;;;;;;;7.65;58.90;99324.00;4999667;28;20037;-64
2023/04/01 00:41:14;;;;;;;13.55;6.53;;;;;;;7.65;58.88;99327.44;4999238;28;20173;-66
2023/04/01 00:43:41;;;;;;;10.98;6.40;;;;;;;7.59;59.25;99324.31;5011800;28;20041;-66
2023/04/01 00:46:07;;;;;;;7.18;5.78;;;;;;;7.63;59.01;99321.47;5015140;28;20725;-64
2023/04/01 00:48:39;;;;;;;10.90;6.82;;;;;;;7.68;59.32;99321.25;5022045;28;20047;-66
2023/04/01 00:51:09;;;;;;;11.25;5.55;;;;;;;7.53;59.45;99318.50;5013452;28;20032;-63
2023/04/01 00:53:40;;;;;;;8.85;6.03;;;;;;;7.66;59.38;99326.50;5006224;28;20041;-66
2023/04/01 00:56:15;;;;;;;9.90;6.18;;;;;;;7.61;59.43;99325.09;5013216;28;20032;-64
2023/04/01 00:58:51;;;;;;;12.25;5.93;;;;;;;7.56;59.27;99330.53;5025298;28;20164;-66
2023/04/01 01:01:17;;;;;;;12.98;6.43;;;;;;;7.67;59.34;99320.41;5013843;28;20045;-66
2023/04/01 01:03:42;;;;;;;11.07;6.82;;;;;;;7.75;59.21;99322.59;5012706;28;20041;-65
2023/04/01 01:06:24;;;;;;;12.55;6.53;;;;;;;7.81;59.08;99324.88;5016951;28;20320;-65
2023/04/01 01:08:53;;;;;;;;;;;;;;;7.85;58.53;99328.16;5017477;28;20036;-67
2023/04/01 01:11:29;;;;;;;9.65;6.57;;;;;;;7.79;58.88;99328.47;5012117;28;20173;-65
2023/04/01 01:14:06;;;;;;;13.30;6.72;;;;;;;7.68;59.01;99329.88;5013501;28;20094;-68
2023/04/01 01:16:40;;;;;;;12.05;7.68;;;;;;;7.65;59.25;99331.81;5011529;28;20060;-68
2023/04/01 01:19:29;;;;;;;13.00;7.78;;;;;;;7.70;59.50;99322.84;5019808;28;20050;-66
2023/04/01 01:22:35;;;;;;;15.45;7.75;;;;;;;7.76;59.22;99332.09;5016675;28;20029;-67
2023/04/01 01:25:35;;;;;;;17.55;7.70;;;;;;;7.74;59.13;99332.16;5018881;28;20103;-67
2023/04/01 01:28:15;;;;;;;14.15;7.68;;;;;;;7.71;58.94;99331.47;5020117;28;20099;-67
2023/04/01 01:30:54;;;;;;;11.75;7.07;;;;;;;7.71;59.12;99327.13;5018942;28;20064;-68
2023/04/01 01:33:37;;;;;;;11.70;7.47;;;;;;;7.77;59.08;99330.31;5014346;28;20192;-67
2023/04/01 01:36:09;;;;;;;13.90;7.00;;;;;;;7.81;58.62;99332.69;5015815;28;20513;-68
2023/04/01 01:38:35;;;;;;;17.65;7.43;;;;;;;7.82;59.07;99328.31;5013799;28;20052;-68
2023/04/01 01:41:07;;;;;;;16.23;8.55;;;;;;;7.73;58.83;99332.22;4999684;28;20068;-69
2023/04/01 01:43:39;;;;;;;14.20;7.60;;;;;;;7.77;59.03;99331.16;5012351;28;20040;-68
2023/04/01 01:46:11;;;;;;;14.98;8.07;;;;;;;7.80;58.92;99330.16;5030754;28;21337;-67
2023/04/01 01:48:38;;;;;;;14.43;7.78;;;;;;;7.83;58.78;99336.03;5012382;28;20036;-71
2023/04/01 01:51:07;;;;;;;16.42;8.20;;;;;;;7.81;58.70;99337.03;5019000;28;20029;-68
2023/04/01 01:53:34;;;;;;;13.02;7.93;;;;;;;7.86;58.78;99335.03;5006762;28;20049;-68
2023/04/01 01:55:59;;;;;;;10.60;7.10;;;;;;;7.78;59.09;99331.97;5032218;28;20200;-68
2023/04/01 01:58:42;;;;;;;12.30;7.57;;;;;;;7.87;58.60;99336.69;5011748;28;20128;-69
2023/04/01 02:01:16;;;;;;;16.48;8.80;;;;;;;7.66;59.18;99339.50;5030139;28;20037;-70
2023/04/01 02:03:44;;;;;;;17.00;9.45;;;;;;;7.70;59.48;99345.41;5025662;28;20247;-69
2023/04/01 02:06:14;;;;;;;14.55;8.02;;;;;;;7.70;59.65;99346.25;5003330;28;20638;-67
2023/04/01 02:08:54;;;;;;;17.40;8.05;;;;;;;7.69;59.81;99344.56;5015555;28;21816;-67
2023/04/01 02:11:27;;;;;;;15.15;8.90;;;;;;;7.68;59.88;99347.25;5009696;28;20515;-71
2023/04/01 02:13:58;;;;;;;15.10;8.50;;;;;;;7.80;59.20;99350.94;4998934;28;20398;-69
2023/04/01 02:16:31;;;;;;;14.05;8.48;;;;;;;7.78;59.55;99353.66;5011501;28;20037;-67
2023/04/01 02:18:59;;;;;;;14.30;8.68;;;;;;;7.71;59.61;99353.13;5001641;28;20037;-72
2023/04/01 02:21:29;;;;;;;18.27;7.93;;;;;;;7.76;59.46;99357.22;5025857;28;20481;-68
2023/04/01 02:23:57;;;;;;;12.38;7.53;;;;;;;7.81;59.31;99363.06;5010522;28;20037;-68
2023/04/01 02:26:25;;;;;;;12.48;7.63;;;;;;;7.81;59.45;99352.66;5009163;28;20073;-70
2023/04/01 02:28:53;;;;;;;16.52;7.90;;;;;;;7.80;59.29;99357.03;5014682;28;20453;-67
2023/04/01 02:31:19;;;;;;;12.02;8.10;;;;;;;7.68;59.88;99358.47;5017706;28;20037;-69
2023/04/01 02:33:46;;;;;;;14.75;8.00;;;;;;;7.68;59.57;99357.66;5026267;28;20076;-73
2023/04/01 02:36:14;;;;;;;10.77;7.00;;;;;;;7.81;59.41;99360.44;5019139;28;20021;-67
2023/04/01 02:38:40;;;;;;;12.48;7.28;;;;;;;7.78;59.62;99360.59;5012369;28;20578;-66
2023/04/01 02:41:06;;;;;;;11.93;7.03;;;;;;;7.81;59.45;99363.88;5019193;28;20033;-66
2023/04/01 02:43:32;;;;;;;11.52;7.30;;;;;;;7.78;59.56;99368.41;5012701;28;20517;-67
2023/04/01 02:45:58;;;;;;;16.05;7.10;;;;;;;7.66;59.95;99365.50;4998515;28;20746;-66
2023/04/01 02:48:24;;;;;;;11.82;6.88;;;;;;;7.85;59.20;99369.78;5011958;28;20052;-63
2023/04/01 02:50:50;;;;;;;14.30;7.88;;;;;;;7.88;59.21;99367.00;5029226;28;20128;-64
2023/04/01 02:53:16;;;;;;;16.38;8.65;;;;;;;7.89;59.18;99366.94;5014375;28;20056;-65
2023/04/01 02:55:42;;;;;;;16.40;9.13;;;;;;;7.88;59.32;99367.84;4997969;28;20033;-68
2023/04/01 02:58:07;;;;;;;14.75;8.75;;;;;;;7.77;59.56;99371.94;5001374;28;20485;-67
2023/04/01 03:00:33;;;;;;;17.05;8.75;;;;;;;7.82;59.50;99370.75;5017433;28;20064;-71
2023/04/01 03:02:59;;;;;;;14.77;8.73;;;;;;;7.90;59.43;99381.59;5002280;28;20061;-71
2023/04/01 03:05:25;;;;;;;13.52;8.75;;;;;;;7.87;59.48;99378.31;5010965;28;20128;-70
2023/04/01 03:07:51;;;;;;;14.60;8.30;;;;;;;7.82;59.66;99381.16;5013118;28;20047;-68
2023/04/01 03:10:16;;;;;;;16.55;9.50;;;;;;;7.77;59.98;99392.75;4998549;28;20742;-67
2023/04/01 03:12:42;;;;;;;15.82;8.18;;;;;;;7.88;59.60;99386.06;5007549;28;20057;-68
2023/04/01 03:15:10;;;;;;;14.55;9.02;;;;;;;7.91;59.54;99379.84;5011230;28;20532;-68
2023/04/01 03:17:35;;;;;;;15.82;9.27;;;;;;;7.93;59.31;99383.19;5009885;28;20045;-68
2023/04/01 03:20:02;;;;;;;16.73;9.40;;;;;;;7.94;59.35;99384.91;5027088;28;20029;-66
2023/04/01 03:22:28;;;;;;;18.77;9.18;;;;;;;7.71;59.91;99375.69;5010990;28;20052;-66
2023/04/01 03:24:53;;;;;;;17.58;8.93;;;;;;;7.97;59.14;99382.13;4991371;28;20037;-66
2023/04/01 03:27:19;;;;;;;18.23;9.68;;;;;;;7.88;59.38;99380.00;5009317;28;20051;-68
2023/04/01 03:29:44;;;;;;;20.50;9.30;;;;;;;7.93;59.15;99386.63;4997330;28;20168;-66
2023/04/01 03:32:11;;;;;;;18.75;9.98;;;;;;;7.83;59.43;99387.22;5016555;28;20563;-67
2023/04/01 03:34:37;;;;;;;17.50;9.35;;;;;;;7.91;59.33;99395.44;5005867;28;20036;-67
2023/04/01 03:37:02;;;;;;;18.75;10.85;;;;;;;7.95;59.44;99394.38;5013092;28;20037;-69
2023/04/01 03:39:30;;;;;;;16.38;9.15;;;;;;;7.92;59.53;99391.94;5009935;28;20036;-65
2023/04/01 03:41:56;;;;;;;18.08;9.55;;;;;;;7.94;59.24;99400.50;5011333;28;20060;-68
2023/04/01 03:44:21;;;;;;;14.75;8.45;;;;;;;7.96;59.50;99398.66;5009431;28;20167;-69
2023/04/01 03:46:51;;;;;;;18.27;9.02;;;;;;;8.00;58.87;99405.38;5008932;28;20112;-68
2023/04/01 03:49:16;;;;;;;17.20;9.80;;;;;;;7.88;59.52;99403.44;5015249;28;20060;-68
2023/04/01 03:51:43;;;;;;;17.42;9.23;;;;;;;7.86;59.33;99406.09;5007329;28;20039;-67
2023/04/01 03:54:10;;;;;;;15.80;9.25;;;;;;;7.92;59.26;99404.94;5014765;28;21524;-66
2023/04/01 03:56:36;;;;;;;17.58;9.68;;;;;;;7.99;59.38;99411.50;5021893;28;20033;-69
2023/04/01 03:59:04;;;;;;;13.43;9.02;;;;;;;7.67;60.09;99414.03;5009653;28;20045;-67
2023/04/01 04:01:30;;;;;;;15.02;8.73;;;;;;;7.99;59.14;99411.50;5013587;28;20044;-67
2023/04/01 04:03:56;;;;;;;17.17;10.20;;;;;;;8.03;59.19;99410.44;5011052;28;20061;-68
2023/04/01 04:06:23;;;;;;;14.93;9.73;;;;;;;7.92;59.20;99416.19;5011979;28;20029;-67
2023/04/01 04:08:49;;;;;;;17.55;10.30;;;;;;;7.97;59.37;99418.56;4990660;28;20044;-67
2023/04/01 04:11:15;;;;;;;19.30;9.38;;;;;;;8.01;59.11;99427.88;5028015;28;20063;-67
2023/04/01 04:13:42;;;;;;;15.65;9.82;;;;;;;8.04;59.11;99425.09;5004508;28;20661;-67
2023/04/01 04:16:09;;;;;;;19.88;10.30;;;;;;;7.93;59.50;99420.47;5016700;28;20402;-65
2023/04/01 04:18:38;;;;;;;20.48;10.05;;;;;;;8.07;59.08;99422.38;5007459;28;20039;-67
2023/04/01 04:21:04;;;;;;;19.35;9.90;;;;;;;8.00;59.35;99425.34;4992486;28;20039;-68
2023/04/01 04:23:31;;;;;;;18.52;10.07;;;;;;;8.05;59.15;99423.38;5009148;28;20056;-67
2023/04/01 04:25:59;;;;;;;18.02;10.18;;;;;;;8.02;59.10;99436.53;5009719;28;20041;-69
2023/04/01 04:28:27;;;;;;;15.48;8.95;;;;;;;8.03;59.29;99433.84;5012971;28;20110;-68
2023/04/01 04:30:58;;;;;;;15.15;8.68;;;;;;;8.12;59.10;99440.34;5012176;28;20038;-67
2023/04/01 04:33:24;;;;;;;13.88;8.73;;;;;;;8.06;58.94;99438.88;5012497;28;20043;-68
2023/04/01 04:35:51;;;;;;;18.35;8.65;;;;;;;8.10;58.94;99443.00;5026569;28;20493;-69
2023/04/01 04:38:17;;;;;;;19.48;9.07;;;;;;;7.82;59.43;99447.97;5012197;28;20506;-69
2023/04/01 04:40:43;;;;;;;18.52;8.50;;;;;;;8.00;59.14;99452.19;5030556;28;20052;-69
2023/04/01 04:43:12;;;;;;;14.13;7.90;;;;;;;7.97;59.52;99449.78;5017502;28;20041;-69
2023/04/01 04:45:42;;;;;;;17.70;9.80;;;;;;;8.01;59.33;99456.50;5024803;28;20037;-68
2023/04/01 04:48:12;;;;;;;16.63;9.10;;;;;;;7.93;59.50;99459.47;5006658;28;20148;-71
2023/04/01 04:50:40;;;;;;;18.38;9.55;;;;;;;7.87;59.88;99462.41;5017913;28;20082;-66
2023/04/01 04:53:05;;;;;;;18.95;9.23;;;;;;;7.92;59.69;99459.59;5016712;28;20044;-68
2023/04/01 04:55:32;;;;;;;18.33;8.35;;;;;;;7.98;59.38;99461.88;5027423;28;20525;-66
2023/04/01 04:58:17;;;;;;;17.10;8.88;;;;;;;7.97;59.48;99464.53;5014985;28;20140;-67
2023/04/01 05:00:45;;;;;;;14.95;9.02;;;;;;;8.03;59.31;99472.03;5016590;28;20148;-69
2023/04/01 05:03:18;;;;;;;18.42;10.45;;;;;;;8.00;59.25;99467.81;5016543;28;20041;-68
2023/04/01 05:05:51;;;;;;;17.75;10.82;;;;;;;7.88;59.30;99468.47;5011345;28;20476;-68
2023/04/01 05:08:17;;;;;;;18.50;9.32;;;;;;;7.81;59.75;99467.94;5026231;28;20049;-69
2023/04/01 05:10:42;;;;;;;15.65;9.02;;;;;;;7.95;59.32;99475.03;4999885;28;20034;-68
2023/04/01 05:13:08;;;;;;;17.55;9.23;;;;;;;7.92;59.12;99481.22;5029941;28;21503;-70
2023/04/01 05:15:35;;;;;;;18.90;9.18;;;;;;;7.81;59.90;99480.94;5016369;28;20541;-69
2023/04/01 05:18:01;;;;;;;14.60;7.30;;;;;;;7.74;59.95;99483.00;5000815;28;20636;-68
2023/04/01 05:20:26;;;;;;;14.45;8.07;;;;;;;7.87;59.28;99483.22;5020364;28;20041;-68
2023/04/01 05:22:56;;;;;;;9.88;6.35;;;;;;;7.81;59.57;99488.75;5016985;28;20351;-69
2023/04/01 05:25:21;;;;;;;9.82;5.78;;;;;;;7.74;59.72;99490.81;5018695;28;20044;-70
2023/04/01 05:27:47;;;;;;;10.70;5.93;;;;;;;7.79;59.74;99497.53;5012138;28;20048;-69
2023/04/01 05:30:13;;;;;;;18.92;7.75;;;;;;;7.68;60.21;99498.91;5015369;28;20118;-68
2023/04/01 05:32:58;;;;;;;9.90;6.10;;;;;;;7.84;59.57;99505.94;5016268;28;20045;-68
2023/04/01 05:35:24;;;;;;;14.10;6.95;;;;;;;7.95;59.30;99503.66;5012957;28;20068;-68
2023/04/01 05:37:50;;;;;;;15.25;7.28;;;;;;;7.76;59.91;99505.47;5026122;28;20457;-67
2023/04/01 05:40:15;;;;;;;14.90;7.75;;;;;;;7.84;59.48;99506.78;5020020;28;20037;-69
2023/04/01 05:42:44;;;;;;;13.50;7.90;;;;;;;7.82;59.73;99505.19;5011526;28;20250;-66
2023/04/01 05:45:10;;;;;;;18.38;7.18;;;;;;;7.86;59.74;99511.91;5018932;28;20040;-68
2023/04/01 05:47:59;;;;;;;10.75;6.10;;;;;;;7.84;59.84;99511.16;5012456;28;20037;-67
2023/04/01 05:50:26;;;;;;;14.25;6.97;;;;;;;7.91;59.44;99518.59;5017315;28;20033;-67
2023/04/01 05:52:52;;;;;;;10.75;6.07;;;;;;;7.92;59.69;99516.81;5009796;28;20049;-68
2023/04/01 05:55:19;;;;;;;15.18;7.70;;;;;;;7.94;59.45;99528.81;5004115;28;20223;-68
2023/04/01 05:57:46;;;;;;;15.90;8.20;;;;;;;7.82;59.52;99531.19;4998956;28;20064;-68
2023/04/01 06:00:12;;;;;;;13.48;7.35;;;;;;;7.78;59.67;99540.94;5014483;28;20037;-68
2023/04/01 06:02:38;;;;;;;15.00;8.13;;;;;;;7.69;59.90;99538.75;5011882;28;20083;-67
2023/04/01 06:05:21;;;;;;;15.88;7.65;;;;;;;7.87;59.54;99540.47;5017923;28;20029;-66
2023/04/01 06:07:47;;;;;;;14.93;8.02;;;;;;;7.97;59.44;99540.00;4998664;28;20075;-67
2023/04/01 06:10:19;;;;;;;12.15;7.28;;;;;;;7.79;59.85;99552.16;5015812;28;20082;-67
2023/04/01 06:12:58;;;;;;;;;;;;;;;7.66;60.52;99547.56;5011168;28;20137;-69
2023/04/01 06:15:59;;;;;;;9.80;5.63;;;;;;;7.79;59.83;99547.81;5008952;28;19924;-72
2023/04/01 06:18:28;;;;;;;11.13;5.43;;;;;;;7.96;59.47;99552.19;5013500;28;21028;-69
2023/04/01 06:21:05;;;;;;;12.27;5.70;;;;;;;7.74;60.14;99553.22;5012223;28;20099;-70
2023/04/01 06:24:02;;;;;;;10.60;5.28;;;;;;;7.85;59.96;99562.28;5013876;28;20099;-70
2023/04/01 06:26:45;;;;;;;11.88;5.95;;;;;;;7.77;59.84;99560.03;5015134;28;20935;-71
2023/04/01 06:29:34;;;;;;;8.60;4.22;;;;;;;7.86;59.68;99569.16;5015738;28;20041;-70
2023/04/01 06:32:08;;;;;;;7.75;4.18;;;;;;;7.67;60.47;99575.25;5031518;28;20121;-69
2023/04/01 06:34:53;;;;;;;3.22;1.70;;;;;;;7.12;60.46;99581.28;5006567;28;20437;-70
2023/04/01 06:37:35;;;;;;;6.35;1.42;;;;;;;6.98;59.70;99585.44;5015833;28;20063;-69
2023/04/01 06:40:16;;;;;;;1.95;0.80;;;;;;;6.60;59.95;99604.41;5025468;28;20029;-71
2023/04/01 06:43:01;;;;;;;5.80;1.70;;;;;;;6.27;60.33;99609.25;5016944;28;20137;-69
2023/04/01 06:46:10;;;;;;;1.92;0.82;;;;;;;6.15;60.90;99607.16;5013220;28;20383;-68
2023/04/01 06:49:17;;;;;;;1.98;1.20;;;;;;;5.80;61.39;99619.84;5008350;28;20055;-68
2023/04/01 06:52:16;;;;;;;3.38;1.77;;;;;;;5.96;60.98;99627.84;5010266;28;20076;-67
2023/04/01 06:55:18;;;;;;;1.58;0.65;;;;;;;5.82;60.98;99634.44;5003944;28;20117;-69
2023/04/01 06:58:05;;;;;;;2.40;0.63;;;;;;;5.69;60.99;99638.41;5007024;28;20505;-70
2023/04/01 07:00:38;;;;;;;2.05;0.98;;;;;;;5.72;61.08;99627.91;4996560;28;20647;-69
2023/04/01 07:03:19;;;;;;;2.40;1.00;;;;;;;5.71;61.14;99635.78;5007976;28;20053;-69
2023/04/01 07:05:45;;;;;;;3.17;0.68;;;;;;;5.51;61.47;99639.97;5014442;28;20037;-70
2023/04/01 07:08:28;;;;;;;4.50;2.78;;;;;;;5.84;60.57;99640.41;5008594;28;20506;-71
2023/04/01 07:10:58;;;;;;;2.67;1.70;;;;;;;5.14;62.01;99648.28;5015206;28;20057;-70
2023/04/01 07:13:57;;;;;;;6.03;0.85;;;;;;;5.20;61.70;99655.84;5012005;28;20079;-70
2023/04/01 07:16:31;;;;;;;2.95;0.95;;;;;;;5.38;61.25;99659.47;5009373;28;20029;-68
2023/04/01 07:19:21;;;;;;;2.55;0.77;;;;;;;5.45;60.91;99661.78;5011953;28;20040;-69
2023/04/01 07:22:16;;;;;;;4.32;0.80;;;;;;;5.45;61.24;99676.47;4997912;28;20488;-69
2023/04/01 07:25:18;;;;;;;1.30;0.65;;;;;;;5.50;60.22;99677.16;4999487;28;20128;-69
2023/04/01 07:27:56;;;;;;;1.27;0.70;;;;;;;5.54;60.27;99688.25;4996644;28;20045;-69
2023/04/01 07:30:24;;;;;;;;;;;;;;;5.61;59.93;99687.97;5010131;28;20090;-68
2023/04/01 07:33:01;;;;;;;1.48;0.47;;;;;;;5.36;60.48;99693.22;4995055;28;19921;-67
2023/04/01 07:35:33;;;;;;;1.27;0.47;;;;;;;5.32;60.41;99702.00;5027555;28;20043;-65
2023/04/01 07:38:08;;;;;;;10.68;4.75;;;;;;;5.36;60.81;99713.09;5023362;28;20067;-68
2023/04/01 07:40:49;;;;;;;5.60;2.35;;;;;;;5.62;59.61;99709.56;5022696;28;20045;-65
2023/04/01 07:43:56;;;;;;;2.55;0.85;;;;;;;5.63;59.91;99717.25;4995384;28;20049;-66
2023/04/01 07:46:40;;;;;;;1.00;0.43;;;;;;;5.46;59.56;99720.50;5012023;28;20136;-65
2023/04/01 07:49:19;;;;;;;1.55;0.50;;;;;;;5.54;59.94;99722.78;5008972;28;20110;-68
2023/04/01 07:52:03;;;;;;;2.10;0.45;;;;;;;5.39;60.07;99733.72;5015884;28;20114;-70
2023/04/01 07:54:39;;;;;;;0.77;0.30;;;;;;;5.22;60.20;99730.00;5007739;28;20045;-69
2023/04/01 07:57:05;;;;;;;3.35;0.30;;;;;;;5.03;60.37;99736.72;5007013;28;21060;-70
2023/04/01 08:00:01;;;;;;;1.00;0.50;;;;;;;5.07;60.30;99738.31;5000076;28;20048;-69
2023/04/01 08:03:07;;;;;;;1.20;0.40;;;;;;;5.20;60.23;99744.75;5022329;28;20106;-69
2023/04/01 08:05:55;;;;;;;2.25;0.60;;;;;;;5.33;59.94;99747.75;5012011;28;20179;-68
2023/04/01 08:08:43;;;;;;;0.70;0.30;;;;;;;5.14;60.60;99755.31;5022784;28;20045;-70
2023/04/01 08:11:51;;;;;;;0.85;0.30;;;;;;;5.52;59.23;99768.66;5024929;28;20095;-70
2023/04/01 08:15:06;;;;;;;2.85;0.20;;;;;;;5.17;59.87;99775.13;5007698;28;20080;-68
2023/04/01 08:18:11;;;;;;;0.40;0.20;;;;;;;5.22;59.36;99774.03;5028168;28;20045;-68
2023/04/01 08:20:55;;;;;;;1.50;0.25;;;;;;;5.18;59.80;99782.81;5016705;28;20071;-71
2023/04/01 08:23:36;;;;;;;1.50;0.50;;;;;;;5.15;59.66;99784.69;5017844;28;20168;-67
2023/04/01 08:26:20;;;;;;;4.45;0.20;;;;;;;5.12;59.40;99790.78;4999514;28;20052;-69
2023/04/01 08:29:11;;;;;;;1.15;0.15;;;;;;;4.93;60.35;99797.53;5029039;28;20049;-68
2023/04/01 08:31:48;;;;;;;2.63;0.28;;;;;;;5.16;59.30;99807.94;5016345;28;20044;-69
2023/04/01 08:34:26;;;;;;;2.28;0.90;;;;;;;5.00;59.79;99799.00;5016390;28;20476;-67
2023/04/01 08:37:01;;;;;;;45.40;17.92;;;;;;;4.99;60.04;99808.50;5021661;28;22340;-67
2023/04/01 08:39:39;;;;;;;3.58;1.33;;;;;;;5.48;59.32;99811.16;5005785;28;20124;-68
2023/04/01 08:42:33;;;;;;;2.75;1.10;;;;;;;5.29;59.15;99820.47;5016099;28;20128;-69
2023/04/01 08:45:22;;;;;;;3.15;1.45;;;;;;;5.33;58.80;99828.06;5001212;28;20416;-70
2023/04/01 08:48:16;;;;;;;3.65;0.98;;;;;;;4.87;60.29;99815.81;5014316;28;20041;-68
2023/04/01 08:51:21;;;;;;;1.27;0.35;;;;;;;5.02;59.67;99823.94;5015969;28;20859;-67
2023/04/01 08:53:58;;;;;;;1.13;0.65;;;;;;;4.73;59.81;99824.88;5008311;28;20141;-70
2023/04/01 08:56:42;;;;;;;2.22;0.40;;;;;;;4.89;59.48;99839.94;5001590;28;20079;-68
2023/04/01 08:59:26;;;;;;;1.10;0.43;;;;;;;5.19;59.54;99831.16;5029127;28;20068;-68
2023/04/01 09:02:31;;;;;;;2.15;0.30;;;;;;;5.64;58.36;99842.56;5016820;28;20572;-69
2023/04/01 09:05:36;;;;;;;1.13;0.30;;;;;;;5.28;58.24;99849.84;4999844;28;20722;-67
2023/04/01 09:08:27;;;;;;;0.70;0.20;;;;;;;4.98;58.70;99853.41;5021070;28;20048;-66
2023/04/01 09:11:47;;;;;;;0.90;0.13;;;;;;;5.35;57.99;99854.78;5016315;28;20043;-68
2023/04/01 09:14:40;;;;;;;;;;;;;;;5.18;58.51;99864.88;4973565;28;20069;-68
2023/04/01 09:17:43;;;;;;;0.93;0.20;;;;;;;5.23;57.54;99866.41;5004250;28;19917;-66
2023/04/01 09:20:27;;;;;;;1.20;0.20;;;;;;;5.17;58.30;99873.56;5016400;28;20039;-67
2023/04/01 09:23:33;;;;;;;3.97;0.25;;;;;;;5.32;57.71;99882.53;5003712;28;20122;-67
2023/04/01 09:26:10;;;;;;;;;;;;;;;5.86;56.24;99881.53;5015927;28;20696;-68
2023/04/01 09:28:50;;;;;;;2.20;0.25;;;;;;;5.73;56.07;99875.09;4996912;28;20109;-68
2023/04/01 09:31:37;;;;;;;3.28;0.20;;;;;;;5.98;55.27;99888.84;5019895;28;20583;-67
2023/04/01 09:35:00;;;;;;;1.20;0.30;;;;;;;5.78;55.45;99892.16;5013013;28;20456;-69
2023/04/01 09:37:51;;;;;;;0.25;0.10;;;;;;;5.36;56.77;99894.50;5013280;28;20207;-66
2023/04/01 09:40:31;;;;;;;2.75;0.20;;;;;;;5.90;56.22;99901.22;5019458;28;20033;-67
2023/04/01 09:43:12;;;;;;;0.55;0.10;;;;;;;5.68;57.21;99901.13;5019721;28;20102;-70
2023/04/01 09:45:43;;;;;;;18.67;8.38;;;;;;;5.61;56.76;99916.09;4997842;28;20033;-68
2023/04/01 09:48:33;;;;;;;11.93;2.53;;;;;;;5.25;57.43;99919.00;5019284;28;20099;-69
2023/04/01 09:51:03;;;;;;;1.30;0.50;;;;;;;5.59;56.49;99917.91;5016836;28;20037;-69
2023/04/01 09:53:44;;;;;;;11.77;3.85;;;;;;;5.58;56.76;99926.56;5029821;28;20045;-69
2023/04/01 09:56:47;;;;;;;8.45;1.98;;;;;;;5.56;56.48;99928.34;5005134;28;20032;-69
2023/04/01 09:59:47;;;;;;;51.33;16.73;;;;;;;5.42;57.20;99935.75;5014735;28;20294;-69
2023/04/01 10:02:43;;;;;;;3.47;0.43;;;;;;;5.69;55.71;99944.34;5015130;28;20500;-69
2023/04/01 10:05:45;;;;;;;1.40;0.17;;;;;;;5.40;56.88;99951.34;5017911;28;20592;-68
2023/04/01 10:08:29;;;;;;;1.70;0.28;;;;;;;5.17;57.18;99949.53;5019307;28;20229;-68
2023/04/01 10:11:16;;;;;;;1.48;0.13;;;;;;;5.39;56.77;99959.16;5021418;28;20747;-70
2023/04/01 10:14:17;;;;;;;2.50;0.10;;;;;;;5.34;57.09;99954.13;5021645;28;20045;-70
2023/04/01 10:17:08;;;;;;;0.10;0.00;;;;;;;5.16;56.67;99970.28;4966247;28;20053;-68
2023/04/01 10:19:59;;;;;;;1.15;0.10;;;;;;;4.89;56.94;99967.66;5007174;28;22211;-69
2023/04/01 10:22:37;;;;;;;1.38;0.20;;;;;;;5.14;57.29;99977.25;5002053;28;20040;-69
2023/04/01 10:25:37;;;;;;;1.58;0.20;;;;;;;5.18;56.89;99978.84;5005825;28;20119;-68
2023/04/01 10:28:21;;;;;;;0.60;0.10;;;;;;;4.96;57.17;99989.88;5020853;28;20357;-66
2023/04/01 10:31:22;;;;;;;0.85;0.38;;;;;;;5.10;57.22;99980.81;5016857;28;20073;-69
2023/04/01 10:34:10;;;;;;;0.73;0.35;;;;;;;5.43;55.94;99990.09;5021876;28;20037;-68
2023/04/01 10:36:51;;;;;;;1.27;0.10;;;;;;;5.69;55.70;99990.16;5022623;28;20029;-68
2023/04/01 10:39:40;;;;;;;0.85;0.30;;;;;;;5.51;55.69;100000.25;5032982;28;20067;-68
2023/04/01 10:42:40;;;;;;;0.70;0.25;;;;;;;5.66;55.46;99993.72;5023146;28;20300;-67
2023/04/01 10:46:02;;;;;;;0.73;0.22;;;;;;;5.99;54.99;99998.63;5009110;28;20146;-68
2023/04/01 10:48:50;;;;;;;1.15;0.20;;;;;;;5.87;54.95;100005.09;5014181;28;20833;-67
2023/04/01 10:51:33;;;;;;;1.77;0.25;;;;;;;6.08;54.40;100013.88;5015792;28;20033;-67
2023/04/01 10:54:18;;;;;;;2.13;0.20;;;;;;;5.56;55.17;100003.53;5004181;28;20059;-70
2023/04/01 10:57:47;;;;;;;0.50;0.20;;;;;;;5.84;54.28;100013.81;5013008;28;20041;-68
2023/04/01 11:01:08;;;;;;;0.57;0.30;;;;;;;5.74;54.11;100024.56;5012267;28;20115;-68
2023/04/01 11:04:11;;;;;;;0.57;0.10;;;;;;;5.66;54.77;100012.69;5013170;28;21693;-69
2023/04/01 11:07:27;;;;;;;0.93;0.10;;;;;;;6.14;54.19;100016.25;5013786;28;20175;-70
2023/04/01 11:09:59;;;;;;;0.70;0.20;;;;;;;6.29;53.37;100022.69;5014441;28;20067;-67
2023/04/01 11:12:46;;;;;;;0.80;0.50;;;;;;;5.71;54.83;100030.69;5009311;28;20113;-67
2023/04/01 11:15:49;;;;;;;0.43;0.10;;;;;;;6.12;53.61;100046.59;5016182;28;20029;-71
2023/04/01 11:18:45;;;;;;;0.60;0.10;;;;;;;5.83;54.41;100052.78;4998034;28;20046;-66
2023/04/01 11:21:50;;;;;;;1.25;0.15;;;;;;;5.75;54.38;100041.78;5012021;28;20029;-69
2023/04/01 11:24:34;;;;;;;0.68;0.20;;;;;;;5.69;54.46;100052.38;5013450;28;20128;-68
2023/04/01 11:27:59;;;;;;;0.38;0.10;;;;;;;5.83;53.74;100060.53;5004764;28;20046;-67
2023/04/01 11:30:44;;;;;;;5.05;1.17;;;;;;;5.81;53.49;100064.94;5014002;28;20041;-69
2023/04/01 11:33:33;;;;;;;50.35;18.98;;;;;;;5.75;53.72;100067.72;5016386;28;20065;-70
2023/04/01 11:36:15;;;;;;;11.98;4.05;;;;;;;5.67;54.49;100071.41;5018730;28;20033;-67
2023/04/01 11:39:09;;;;;;;1.52;0.85;;;;;;;5.58;53.85;100076.91;5019576;28;20353;-66
2023/04/01 11:41:59;;;;;;;1.20;0.50;;;;;;;6.09;53.15;100075.25;5018227;28;20448;-70
2023/04/01 11:45:13;;;;;;;0.20;0.10;;;;;;;5.86;53.72;100091.59;4997457;28;20660;-69
2023/04/01 11:48:02;;;;;;;0.30;0.05;;;;;;;5.77;54.14;100099.63;5014504;28;20389;-70
2023/04/01 11:51:02;;;;;;;0.60;0.28;;;;;;;5.80;54.44;100096.97;5017095;28;20052;-68
2023/04/01 11:54:18;;;;;;;0.45;0.10;;;;;;;5.79;53.84;100110.81;5028462;28;20318;-71
2023/04/01 11:57:05;;;;;;;0.35;0.10;;;;;;;6.16;52.85;100107.03;5002587;28;20673;-71
2023/04/01 11:59:56;;;;;;;0.50;0.15;;;;;;;6.28;52.85;100124.78;5012810;23;20103;-69
2023/04/01 12:02:40;;;;;;;0.68;0.10;;;;;;;6.11;52.46;100121.91;4998114;28;20060;-67
2023/04/01 12:05:28;;;;;;;0.30;0.10;;;;;;;5.63;53.29;100138.97;5003586;28;20494;-68
2023/04/01 12:08:08;;;;;;;0.60;0.10;;;;;;;5.59;52.87;100139.97;5005809;28;20069;-69
2023/04/01 12:11:15;;;;;;;0.60;0.10;;;;;;;5.48;53.47;100148.09;4957496;28;20050;-70
2023/04/01 12:13:59;;;;;;;0.68;0.10;;;;;;;5.85;52.56;100152.13;4982177;28;20072;-70
2023/04/01 12:16:38;;;;;;;0.38;0.10;;;;;;;5.98;52.63;100161.19;4982535;28;20162;-69
2023/04/01 12:19:44;;;;;;;4.13;0.47;;;;;;;5.87;53.24;100165.88;4984840;28;20495;-71
2023/04/01 12:22:41;;;;;;;10.15;3.40;;;;;;;6.04;52.78;100157.56;4929198;28;20075;-70
2023/04/01 12:25:34;;;;;;;7.05;1.13;;;;;;;5.79;53.08;100167.84;4982354;28;21056;-69
2023/04/01 12:28:22;;;;;;;3.92;1.23;;;;;;;5.59;53.76;100177.13;4975730;28;20048;-71
2023/04/01 12:31:06;;;;;;;1.63;0.10;;;;;;;5.37;54.66;100184.69;4985330;28;20040;-70
2023/04/01 12:33:50;;;;;;;3.33;0.20;;;;;;;5.60;53.98;100184.00;4981429;28;20050;-69